sensor_id;sensor_type;location;lat;lon;timestamp;P1;durP1;ratioP1;P2;durP2;ratioP2
5135;SDS011;2586;48.710;9.202;2022-09-03T00:01:45;2.93;;;1.70;;
5135;SDS011;2586;48.710;9.202;2022-09-03T00:04:21;3.40;;;1.70;;
5135;SDS011;2586;48.710;9.202;2022-09-03T00:07:16;1.47;;;1.37;;
5135;SDS011;2586;48.710;9.202;2022-09-03T00:09:58;9.90;;;1.90;;
5135;SDS011;2586;48.710;9.202;2022-09-03T00:12:27;2.10;;;1.80;;
5135;SDS011;2586;48.710;9.202;2022-09-03T00:15:07;2.37;;;1.70;;
5135;SDS011;2586;48.710;9.202;2022-09-03T00:17:52;1.63;;;1.43;;
5135;SDS011;2586;48.710;9.202;2022-09-03T00:20:29;5.27;;;1.67;;
5135;SDS011;2586;48.710;9.202;2022-09-03T00:23:08;4.43;;;1.27;;
5135;SDS011;2586;48.710;9.202;2022-09-03T00:25:47;1.30;;;1.20;;
5135;SDS011;2586;48.710;9.202;2022-09-03T00:28:18;2.50;;;1.17;;
5135;SDS011;2586;48.710;9.202;2022-09-03T00:30:50;9.10;;;1.60;;
5135;SDS011;2586;48.710;9.202;2022-09-03T00:33:25;4.10;;;1.50;;
5135;SDS011;2586;48.710;9.202;2022-09-03T00:38:28;1.63;;;1.40;;
5135;SDS011;2586;48.710;9.202;2022-09-03T00:41:01;5.70;;;1.60;;
5135;SDS011;2586;48.710;9.202;2022-09-03T00:46:37;2.60;;;1.17;;
5135;SDS011;2586;48.710;9.202;2022-09-03T00:54:05;2.60;;;1.93;;
5135;SDS011;2586;48.710;9.202;2022-09-03T00:57:06;5.13;;;1.50;;
5135;SDS011;2586;48.710;9.202;2022-09-03T01:14:08;2.13;;;1.40;;
5135;SDS011;2586;48.710;9.202;2022-09-03T01:16:50;3.13;;;1.80;;
5135;SDS011;2586;48.710;9.202;2022-09-03T01:28:01;2.50;;;1.10;;
5135;SDS011;2586;48.710;9.202;2022-09-03T01:30:51;2.90;;;1.10;;
5135;SDS011;2586;48.710;9.202;2022-09-03T01:36:10;2.80;;;1.10;;
5135;SDS011;2586;48.710;9.202;2022-09-03T01:39:02;2.53;;;1.20;;
5135;SDS011;2586;48.710;9.202;2022-09-03T01:44:45;0.90;;;0.90;;
5135;SDS011;2586;48.710;9.202;2022-09-03T01:47:26;1.97;;;1.27;;
5135;SDS011;2586;48.710;9.202;2022-09-03T01:50:11;2.43;;;1.10;;
5135;SDS011;2586;48.710;9.202;2022-09-03T01:52:50;1.10;;;0.90;;
5135;SDS011;2586;48.710;9.202;2022-09-03T01:55:31;1.37;;;1.10;;
5135;SDS011;2586;48.710;9.202;2022-09-03T01:58:15;4.73;;;1.90;;
5135;SDS011;2586;48.710;9.202;2022-09-03T02:00:54;1.07;;;0.90;;
5135;SDS011;2586;48.710;9.202;2022-09-03T02:03:32;1.20;;;1.10;;
5135;SDS011;2586;48.710;9.202;2022-09-03T02:06:02;1.43;;;1.30;;
5135;SDS011;2586;48.710;9.202;2022-09-03T02:08:29;4.00;;;1.37;;
5135;SDS011;2586;48.710;9.202;2022-09-03T02:10:56;1.63;;;1.00;;
5135;SDS011;2586;48.710;9.202;2022-09-03T02:13:30;2.10;;;1.13;;
5135;SDS011;2586;48.710;9.202;2022-09-03T02:16:02;6.07;;;1.30;;
5135;SDS011;2586;48.710;9.202;2022-09-03T02:18:36;1.03;;;0.87;;
5135;SDS011;2586;48.710;9.202;2022-09-03T02:21:11;3.40;;;1.20;;
5135;SDS011;2586;48.710;9.202;2022-09-03T02:23:39;3.03;;;1.13;;
5135;SDS011;2586;48.710;9.202;2022-09-03T02:26:06;1.17;;;0.90;;
5135;SDS011;2586;48.710;9.202;2022-09-03T02:28:33;0.90;;;0.90;;
5135;SDS011;2586;48.710;9.202;2022-09-03T02:30:59;3.00;;;1.67;;
5135;SDS011;2586;48.710;9.202;2022-09-03T02:33:25;1.87;;;1.73;;
5135;SDS011;2586;48.710;9.202;2022-09-03T02:35:51;7.77;;;1.10;;
5135;SDS011;2586;48.710;9.202;2022-09-03T02:38:19;1.70;;;1.27;;
5135;SDS011;2586;48.710;9.202;2022-09-03T02:40:49;1.00;;;1.00;;
5135;SDS011;2586;48.710;9.202;2022-09-03T02:43:19;3.17;;;1.27;;
5135;SDS011;2586;48.710;9.202;2022-09-03T02:45:52;3.60;;;1.23;;
5135;SDS011;2586;48.710;9.202;2022-09-03T02:48:22;3.87;;;1.10;;
5135;SDS011;2586;48.710;9.202;2022-09-03T02:50:48;1.47;;;1.00;;
5135;SDS011;2586;48.710;9.202;2022-09-03T02:53:14;1.30;;;1.20;;
5135;SDS011;2586;48.710;9.202;2022-09-03T02:55:40;1.53;;;1.20;;
5135;SDS011;2586;48.710;9.202;2022-09-03T02:58:07;2.80;;;1.10;;
5135;SDS011;2586;48.710;9.202;2022-09-03T03:00:33;1.53;;;1.00;;
5135;SDS011;2586;48.710;9.202;2022-09-03T03:03:00;1.70;;;1.37;;
5135;SDS011;2586;48.710;9.202;2022-09-03T03:05:46;0.87;;;0.87;;
5135;SDS011;2586;48.710;9.202;2022-09-03T03:08:14;1.13;;;1.00;;
5135;SDS011;2586;48.710;9.202;2022-09-03T03:10:41;2.00;;;1.53;;
5135;SDS011;2586;48.710;9.202;2022-09-03T03:13:08;2.60;;;1.33;;
5135;SDS011;2586;48.710;9.202;2022-09-03T03:15:34;4.30;;;1.23;;
5135;SDS011;2586;48.710;9.202;2022-09-03T03:18:00;3.57;;;1.73;;
5135;SDS011;2586;48.710;9.202;2022-09-03T03:20:26;1.33;;;1.13;;
5135;SDS011;2586;48.710;9.202;2022-09-03T03:22:51;3.03;;;1.03;;
5135;SDS011;2586;48.710;9.202;2022-09-03T03:25:17;1.30;;;0.83;;
5135;SDS011;2586;48.710;9.202;2022-09-03T03:27:42;11.47;;;1.13;;
5135;SDS011;2586;48.710;9.202;2022-09-03T03:30:08;2.83;;;1.10;;
5135;SDS011;2586;48.710;9.202;2022-09-03T03:32:35;2.70;;;1.30;;
5135;SDS011;2586;48.710;9.202;2022-09-03T03:35:01;2.20;;;1.30;;
5135;SDS011;2586;48.710;9.202;2022-09-03T03:37:28;3.00;;;1.07;;
5135;SDS011;2586;48.710;9.202;2022-09-03T03:39:54;1.20;;;1.10;;
5135;SDS011;2586;48.710;9.202;2022-09-03T03:42:19;4.17;;;1.67;;
5135;SDS011;2586;48.710;9.202;2022-09-03T03:44:45;1.20;;;1.10;;
5135;SDS011;2586;48.710;9.202;2022-09-03T03:47:10;6.43;;;1.20;;
5135;SDS011;2586;48.710;9.202;2022-09-03T03:49:36;3.23;;;0.87;;
5135;SDS011;2586;48.710;9.202;2022-09-03T03:52:02;1.30;;;1.20;;
5135;SDS011;2586;48.710;9.202;2022-09-03T03:54:28;10.93;;;1.60;;
5135;SDS011;2586;48.710;9.202;2022-09-03T03:56:54;9.10;;;1.30;;
5135;SDS011;2586;48.710;9.202;2022-09-03T03:59:20;1.93;;;1.20;;
5135;SDS011;2586;48.710;9.202;2022-09-03T04:01:46;2.80;;;1.13;;
5135;SDS011;2586;48.710;9.202;2022-09-03T04:04:14;2.60;;;1.20;;
5135;SDS011;2586;48.710;9.202;2022-09-03T04:06:39;3.67;;;1.60;;
5135;SDS011;2586;48.710;9.202;2022-09-03T04:09:05;2.77;;;1.20;;
5135;SDS011;2586;48.710;9.202;2022-09-03T04:11:30;2.53;;;1.50;;
5135;SDS011;2586;48.710;9.202;2022-09-03T04:13:56;1.53;;;1.43;;
5135;SDS011;2586;48.710;9.202;2022-09-03T04:16:23;2.70;;;1.03;;
5135;SDS011;2586;48.710;9.202;2022-09-03T04:18:54;1.93;;;1.83;;
5135;SDS011;2586;48.710;9.202;2022-09-03T04:21:21;1.83;;;1.07;;
5135;SDS011;2586;48.710;9.202;2022-09-03T04:23:49;1.57;;;1.30;;
5135;SDS011;2586;48.710;9.202;2022-09-03T04:26:17;1.53;;;1.43;;
5135;SDS011;2586;48.710;9.202;2022-09-03T04:28:44;1.30;;;1.03;;
5135;SDS011;2586;48.710;9.202;2022-09-03T04:31:10;2.07;;;1.43;;
5135;SDS011;2586;48.710;9.202;2022-09-03T04:33:37;2.20;;;1.40;;
5135;SDS011;2586;48.710;9.202;2022-09-03T04:38:37;1.97;;;1.67;;
5135;SDS011;2586;48.710;9.202;2022-09-03T04:41:06;2.63;;;1.23;;
5135;SDS011;2586;48.710;9.202;2022-09-03T04:43:32;1.47;;;1.33;;
5135;SDS011;2586;48.710;9.202;2022-09-03T04:45:59;2.20;;;1.00;;
5135;SDS011;2586;48.710;9.202;2022-09-03T04:48:26;2.73;;;1.83;;
5135;SDS011;2586;48.710;9.202;2022-09-03T04:50:52;11.30;;;1.80;;
5135;SDS011;2586;48.710;9.202;2022-09-03T04:53:19;5.00;;;1.50;;
5135;SDS011;2586;48.710;9.202;2022-09-03T04:55:45;2.50;;;1.53;;
5135;SDS011;2586;48.710;9.202;2022-09-03T04:58:10;4.50;;;1.40;;
5135;SDS011;2586;48.710;9.202;2022-09-03T05:00:36;1.67;;;1.57;;
5135;SDS011;2586;48.710;9.202;2022-09-03T05:03:02;1.83;;;1.73;;
5135;SDS011;2586;48.710;9.202;2022-09-03T05:05:29;1.97;;;1.80;;
5135;SDS011;2586;48.710;9.202;2022-09-03T05:07:59;2.77;;;1.83;;
5135;SDS011;2586;48.710;9.202;2022-09-03T05:10:28;3.83;;;1.90;;
5135;SDS011;2586;48.710;9.202;2022-09-03T05:13:01;8.33;;;1.70;;
5135;SDS011;2586;48.710;9.202;2022-09-03T05:15:29;4.23;;;1.93;;
5135;SDS011;2586;48.710;9.202;2022-09-03T05:17:59;4.07;;;1.50;;
5135;SDS011;2586;48.710;9.202;2022-09-03T05:20:26;3.07;;;1.60;;
5135;SDS011;2586;48.710;9.202;2022-09-03T05:22:53;3.00;;;1.50;;
5135;SDS011;2586;48.710;9.202;2022-09-03T05:25:19;5.50;;;1.90;;
5135;SDS011;2586;48.710;9.202;2022-09-03T05:27:45;3.43;;;1.43;;
5135;SDS011;2586;48.710;9.202;2022-09-03T05:30:11;2.40;;;1.57;;
5135;SDS011;2586;48.710;9.202;2022-09-03T05:32:37;2.57;;;1.93;;
5135;SDS011;2586;48.710;9.202;2022-09-03T05:35:03;1.67;;;1.30;;
5135;SDS011;2586;48.710;9.202;2022-09-03T05:37:29;3.17;;;2.00;;
5135;SDS011;2586;48.710;9.202;2022-09-03T05:39:55;2.53;;;2.30;;
5135;SDS011;2586;48.710;9.202;2022-09-03T05:42:20;5.40;;;3.20;;
5135;SDS011;2586;48.710;9.202;2022-09-03T05:44:46;1.40;;;1.30;;
5135;SDS011;2586;48.710;9.202;2022-09-03T05:47:13;1.50;;;1.40;;
5135;SDS011;2586;48.710;9.202;2022-09-03T05:49:39;5.33;;;1.90;;
5135;SDS011;2586;48.710;9.202;2022-09-03T05:52:05;2.80;;;1.57;;
5135;SDS011;2586;48.710;9.202;2022-09-03T05:54:30;2.70;;;1.20;;
5135;SDS011;2586;48.710;9.202;2022-09-03T05:56:56;3.97;;;1.70;;
5135;SDS011;2586;48.710;9.202;2022-09-03T05:59:22;10.53;;;1.07;;
5135;SDS011;2586;48.710;9.202;2022-09-03T06:01:47;3.07;;;1.57;;
5135;SDS011;2586;48.710;9.202;2022-09-03T06:04:14;3.17;;;1.50;;
5135;SDS011;2586;48.710;9.202;2022-09-03T06:06:41;6.37;;;1.27;;
5135;SDS011;2586;48.710;9.202;2022-09-03T06:09:09;3.63;;;2.27;;
5135;SDS011;2586;48.710;9.202;2022-09-03T06:11:38;2.40;;;2.10;;
5135;SDS011;2586;48.710;9.202;2022-09-03T06:14:08;5.13;;;2.50;;
5135;SDS011;2586;48.710;9.202;2022-09-03T06:16:36;1.67;;;1.57;;
5135;SDS011;2586;48.710;9.202;2022-09-03T06:19:03;4.77;;;2.27;;
5135;SDS011;2586;48.710;9.202;2022-09-03T06:21:31;4.00;;;1.40;;
5135;SDS011;2586;48.710;9.202;2022-09-03T06:23:57;5.57;;;1.80;;
5135;SDS011;2586;48.710;9.202;2022-09-03T06:26:23;3.87;;;2.17;;
5135;SDS011;2586;48.710;9.202;2022-09-03T06:28:49;3.97;;;1.80;;
5135;SDS011;2586;48.710;9.202;2022-09-03T06:31:19;5.53;;;1.77;;
5135;SDS011;2586;48.710;9.202;2022-09-03T06:33:46;1.93;;;1.83;;
5135;SDS011;2586;48.710;9.202;2022-09-03T06:36:12;2.67;;;1.60;;
5135;SDS011;2586;48.710;9.202;2022-09-03T06:38:42;8.10;;;1.50;;
5135;SDS011;2586;48.710;9.202;2022-09-03T06:43:45;6.43;;;1.63;;
5135;SDS011;2586;48.710;9.202;2022-09-03T06:46:15;7.07;;;1.97;;
5135;SDS011;2586;48.710;9.202;2022-09-03T06:48:42;7.03;;;2.40;;
5135;SDS011;2586;48.710;9.202;2022-09-03T06:51:10;11.50;;;2.50;;
5135;SDS011;2586;48.710;9.202;2022-09-03T06:53:38;3.03;;;1.50;;
5135;SDS011;2586;48.710;9.202;2022-09-03T06:56:07;7.23;;;2.50;;
5135;SDS011;2586;48.710;9.202;2022-09-03T06:58:36;5.33;;;2.00;;
5135;SDS011;2586;48.710;9.202;2022-09-03T07:01:07;1.87;;;1.77;;
5135;SDS011;2586;48.710;9.202;2022-09-03T07:03:35;5.50;;;1.83;;
5135;SDS011;2586;48.710;9.202;2022-09-03T07:06:03;3.60;;;2.00;;
5135;SDS011;2586;48.710;9.202;2022-09-03T07:08:34;4.13;;;1.87;;
5135;SDS011;2586;48.710;9.202;2022-09-03T07:11:00;1.97;;;1.77;;
5135;SDS011;2586;48.710;9.202;2022-09-03T07:13:31;5.43;;;2.20;;
5135;SDS011;2586;48.710;9.202;2022-09-03T07:15:58;3.57;;;1.90;;
5135;SDS011;2586;48.710;9.202;2022-09-03T07:18:25;2.27;;;1.97;;
5135;SDS011;2586;48.710;9.202;2022-09-03T07:20:50;8.87;;;2.53;;
5135;SDS011;2586;48.710;9.202;2022-09-03T07:23:16;2.97;;;2.20;;
5135;SDS011;2586;48.710;9.202;2022-09-03T07:25:42;4.90;;;2.50;;
5135;SDS011;2586;48.710;9.202;2022-09-03T07:28:08;4.43;;;2.10;;
5135;SDS011;2586;48.710;9.202;2022-09-03T07:30:33;3.10;;;1.93;;
5135;SDS011;2586;48.710;9.202;2022-09-03T07:32:59;5.20;;;2.20;;
5135;SDS011;2586;48.710;9.202;2022-09-03T07:35:28;4.33;;;2.00;;
5135;SDS011;2586;48.710;9.202;2022-09-03T07:37:54;4.37;;;2.10;;
5135;SDS011;2586;48.710;9.202;2022-09-03T07:40:20;8.27;;;2.70;;
5135;SDS011;2586;48.710;9.202;2022-09-03T07:42:45;9.80;;;2.23;;
5135;SDS011;2586;48.710;9.202;2022-09-03T07:45:12;7.50;;;2.10;;
5135;SDS011;2586;48.710;9.202;2022-09-03T07:47:44;3.97;;;2.20;;
5135;SDS011;2586;48.710;9.202;2022-09-03T07:50:11;4.73;;;2.40;;
5135;SDS011;2586;48.710;9.202;2022-09-03T07:52:37;4.53;;;2.10;;
5135;SDS011;2586;48.710;9.202;2022-09-03T07:55:02;4.47;;;2.27;;
5135;SDS011;2586;48.710;9.202;2022-09-03T07:57:28;2.60;;;2.17;;
5135;SDS011;2586;48.710;9.202;2022-09-03T07:59:54;2.80;;;2.00;;
5135;SDS011;2586;48.710;9.202;2022-09-03T08:02:19;3.03;;;2.40;;
5135;SDS011;2586;48.710;9.202;2022-09-03T08:04:45;3.10;;;2.40;;
5135;SDS011;2586;48.710;9.202;2022-09-03T08:07:11;2.00;;;1.90;;
5135;SDS011;2586;48.710;9.202;2022-09-03T08:09:36;2.00;;;1.80;;
5135;SDS011;2586;48.710;9.202;2022-09-03T08:12:02;9.40;;;1.90;;
5135;SDS011;2586;48.710;9.202;2022-09-03T08:14:29;6.40;;;2.60;;
5135;SDS011;2586;48.710;9.202;2022-09-03T08:16:55;6.93;;;2.50;;
5135;SDS011;2586;48.710;9.202;2022-09-03T08:19:21;3.37;;;2.63;;
5135;SDS011;2586;48.710;9.202;2022-09-03T08:21:47;3.37;;;2.30;;
5135;SDS011;2586;48.710;9.202;2022-09-03T08:24:14;9.47;;;2.53;;
5135;SDS011;2586;48.710;9.202;2022-09-03T08:26:41;11.27;;;1.83;;
5135;SDS011;2586;48.710;9.202;2022-09-03T08:29:07;2.63;;;2.03;;
5135;SDS011;2586;48.710;9.202;2022-09-03T08:31:33;11.50;;;4.17;;
5135;SDS011;2586;48.710;9.202;2022-09-03T08:34:00;4.77;;;2.50;;
5135;SDS011;2586;48.710;9.202;2022-09-03T08:36:30;3.10;;;2.60;;
5135;SDS011;2586;48.710;9.202;2022-09-03T08:38:58;5.20;;;2.83;;
5135;SDS011;2586;48.710;9.202;2022-09-03T08:44:23;2.50;;;2.40;;
5135;SDS011;2586;48.710;9.202;2022-09-03T08:47:01;3.03;;;2.70;;
5135;SDS011;2586;48.710;9.202;2022-09-03T08:52:22;3.50;;;2.70;;
5135;SDS011;2586;48.710;9.202;2022-09-03T08:57:54;2.63;;;2.43;;
5135;SDS011;2586;48.710;9.202;2022-09-03T09:00:45;11.30;;;2.60;;
5135;SDS011;2586;48.710;9.202;2022-09-03T09:06:06;7.20;;;2.90;;
5135;SDS011;2586;48.710;9.202;2022-09-03T09:12:03;6.00;;;2.70;;
5135;SDS011;2586;48.710;9.202;2022-09-03T09:20:00;7.63;;;3.47;;
5135;SDS011;2586;48.710;9.202;2022-09-03T09:22:40;2.90;;;2.70;;
5135;SDS011;2586;48.710;9.202;2022-09-03T09:25:33;2.40;;;2.20;;
5135;SDS011;2586;48.710;9.202;2022-09-03T09:28:15;3.00;;;2.47;;
5135;SDS011;2586;48.710;9.202;2022-09-03T09:30:46;2.00;;;1.90;;
5135;SDS011;2586;48.710;9.202;2022-09-03T09:33:14;2.27;;;2.07;;
5135;SDS011;2586;48.710;9.202;2022-09-03T09:35:41;6.90;;;3.10;;
5135;SDS011;2586;48.710;9.202;2022-09-03T09:38:08;4.10;;;2.83;;
5135;SDS011;2586;48.710;9.202;2022-09-03T09:40:35;6.83;;;2.43;;
5135;SDS011;2586;48.710;9.202;2022-09-03T09:43:13;3.90;;;2.50;;
5135;SDS011;2586;48.710;9.202;2022-09-03T09:45:42;1.93;;;1.83;;
5135;SDS011;2586;48.710;9.202;2022-09-03T09:48:16;2.43;;;2.23;;
5135;SDS011;2586;48.710;9.202;2022-09-03T09:53:30;4.23;;;2.40;;
5135;SDS011;2586;48.710;9.202;2022-09-03T09:55:56;3.43;;;1.90;;
5135;SDS011;2586;48.710;9.202;2022-09-03T09:58:23;3.70;;;1.80;;
5135;SDS011;2586;48.710;9.202;2022-09-03T10:03:48;5.80;;;2.50;;
5135;SDS011;2586;48.710;9.202;2022-09-03T10:06:21;3.83;;;2.47;;
5135;SDS011;2586;48.710;9.202;2022-09-03T10:09:12;3.10;;;2.23;;
5135;SDS011;2586;48.710;9.202;2022-09-03T10:12:23;8.33;;;3.30;;
5135;SDS011;2586;48.710;9.202;2022-09-03T10:14:48;4.20;;;2.53;;
5135;SDS011;2586;48.710;9.202;2022-09-03T10:23:12;2.70;;;2.50;;
5135;SDS011;2586;48.710;9.202;2022-09-03T10:28:20;3.00;;;2.60;;
5135;SDS011;2586;48.710;9.202;2022-09-03T10:46:57;2.97;;;2.53;;
5135;SDS011;2586;48.710;9.202;2022-09-03T10:52:09;5.37;;;2.40;;
5135;SDS011;2586;48.710;9.202;2022-09-03T10:54:54;2.50;;;2.30;;
5135;SDS011;2586;48.710;9.202;2022-09-03T10:57:52;2.90;;;2.70;;
5135;SDS011;2586;48.710;9.202;2022-09-03T11:00:31;4.23;;;2.40;;
5135;SDS011;2586;48.710;9.202;2022-09-03T11:03:10;4.43;;;2.67;;
5135;SDS011;2586;48.710;9.202;2022-09-03T11:05:55;3.40;;;3.20;;
5135;SDS011;2586;48.710;9.202;2022-09-03T11:11:19;3.00;;;2.80;;
5135;SDS011;2586;48.710;9.202;2022-09-03T11:13:52;3.57;;;3.27;;
5135;SDS011;2586;48.710;9.202;2022-09-03T11:16:27;3.20;;;2.60;;
5135;SDS011;2586;48.710;9.202;2022-09-03T11:19:00;4.50;;;2.90;;
5135;SDS011;2586;48.710;9.202;2022-09-03T11:21:30;3.93;;;2.90;;
5135;SDS011;2586;48.710;9.202;2022-09-03T11:26:42;3.90;;;3.43;;
5135;SDS011;2586;48.710;9.202;2022-09-03T11:34:32;4.43;;;2.30;;
5135;SDS011;2586;48.710;9.202;2022-09-03T11:37:17;3.90;;;3.07;;
5135;SDS011;2586;48.710;9.202;2022-09-03T11:42:42;3.40;;;3.10;;
5135;SDS011;2586;48.710;9.202;2022-09-03T11:47:54;5.53;;;2.50;;
5135;SDS011;2586;48.710;9.202;2022-09-03T11:52:46;3.90;;;3.60;;
5135;SDS011;2586;48.710;9.202;2022-09-03T11:55:29;4.83;;;2.60;;
5135;SDS011;2586;48.710;9.202;2022-09-03T11:57:56;2.83;;;2.60;;
5135;SDS011;2586;48.710;9.202;2022-09-03T12:00:23;4.07;;;2.60;;
5135;SDS011;2586;48.710;9.202;2022-09-03T12:02:56;4.20;;;3.03;;
5135;SDS011;2586;48.710;9.202;2022-09-03T12:09:05;3.60;;;3.03;;
5135;SDS011;2586;48.710;9.202;2022-09-03T12:14:09;5.13;;;3.30;;
5135;SDS011;2586;48.710;9.202;2022-09-03T12:19:30;2.30;;;1.60;;
5135;SDS011;2586;48.710;9.202;2022-09-03T12:22:02;4.03;;;1.40;;
5135;SDS011;2586;48.710;9.202;2022-09-03T12:24:28;3.90;;;1.17;;
5135;SDS011;2586;48.710;9.202;2022-09-03T12:26:56;2.50;;;1.10;;
5135;SDS011;2586;48.710;9.202;2022-09-03T12:29:26;0.90;;;0.90;;
5135;SDS011;2586;48.710;9.202;2022-09-03T12:31:54;2.40;;;1.37;;
5135;SDS011;2586;48.710;9.202;2022-09-03T12:34:20;3.60;;;1.07;;
5135;SDS011;2586;48.710;9.202;2022-09-03T12:36:51;3.63;;;0.83;;
5135;SDS011;2586;48.710;9.202;2022-09-03T12:39:19;1.80;;;1.30;;
5135;SDS011;2586;48.710;9.202;2022-09-03T12:41:57;2.67;;;1.13;;
5135;SDS011;2586;48.710;9.202;2022-09-03T12:44:26;1.50;;;0.97;;
5135;SDS011;2586;48.710;9.202;2022-09-03T12:47:05;3.43;;;0.97;;
5135;SDS011;2586;48.710;9.202;2022-09-03T12:49:40;4.13;;;1.63;;
5135;SDS011;2586;48.710;9.202;2022-09-03T12:52:10;2.60;;;1.53;;
5135;SDS011;2586;48.710;9.202;2022-09-03T12:54:50;5.77;;;2.00;;
5135;SDS011;2586;48.710;9.202;2022-09-03T12:57:29;2.77;;;1.30;;
5135;SDS011;2586;48.710;9.202;2022-09-03T12:59:59;5.13;;;1.27;;
5135;SDS011;2586;48.710;9.202;2022-09-03T13:02:34;5.37;;;2.10;;
5135;SDS011;2586;48.710;9.202;2022-09-03T13:05:04;6.17;;;1.13;;
5135;SDS011;2586;48.710;9.202;2022-09-03T13:07:35;3.23;;;1.53;;
5135;SDS011;2586;48.710;9.202;2022-09-03T13:10:04;4.30;;;1.07;;
5135;SDS011;2586;48.710;9.202;2022-09-03T13:12:45;3.00;;;1.50;;
5135;SDS011;2586;48.710;9.202;2022-09-03T13:15:20;2.40;;;1.00;;
5135;SDS011;2586;48.710;9.202;2022-09-03T13:26:11;1.07;;;0.97;;
5135;SDS011;2586;48.710;9.202;2022-09-03T13:32:17;1.40;;;1.03;;
5135;SDS011;2586;48.710;9.202;2022-09-03T13:34:53;2.37;;;1.43;;
5135;SDS011;2586;48.710;9.202;2022-09-03T13:40:53;10.90;;;1.93;;
5135;SDS011;2586;48.710;9.202;2022-09-03T13:45:43;6.80;;;1.30;;
5135;SDS011;2586;48.710;9.202;2022-09-03T13:48:25;1.27;;;0.90;;
5135;SDS011;2586;48.710;9.202;2022-09-03T13:51:16;2.27;;;1.20;;
5135;SDS011;2586;48.710;9.202;2022-09-03T13:53:56;2.40;;;1.10;;
5135;SDS011;2586;48.710;9.202;2022-09-03T13:56:34;1.83;;;1.17;;
5135;SDS011;2586;48.710;9.202;2022-09-03T13:59:22;3.03;;;1.13;;
5135;SDS011;2586;48.710;9.202;2022-09-03T14:02:10;1.70;;;1.03;;
5135;SDS011;2586;48.710;9.202;2022-09-03T14:04:54;1.20;;;1.00;;
5135;SDS011;2586;48.710;9.202;2022-09-03T14:21:14;2.07;;;1.00;;
5135;SDS011;2586;48.710;9.202;2022-09-03T14:26:35;4.47;;;0.83;;
5135;SDS011;2586;48.710;9.202;2022-09-03T14:39:55;3.70;;;1.17;;
5135;SDS011;2586;48.710;9.202;2022-09-03T14:42:55;1.13;;;0.73;;
5135;SDS011;2586;48.710;9.202;2022-09-03T15:00:01;8.13;;;0.80;;
5135;SDS011;2586;48.710;9.202;2022-09-03T15:03:02;1.07;;;0.70;;
5135;SDS011;2586;48.710;9.202;2022-09-03T15:11:09;1.23;;;0.80;;
5135;SDS011;2586;48.710;9.202;2022-09-03T15:14:01;0.60;;;0.60;;
5135;SDS011;2586;48.710;9.202;2022-09-03T15:16:36;4.13;;;1.37;;
5135;SDS011;2586;48.710;9.202;2022-09-03T15:19:35;6.43;;;1.57;;
5135;SDS011;2586;48.710;9.202;2022-09-03T15:27:55;2.47;;;1.10;;
5135;SDS011;2586;48.710;9.202;2022-09-03T15:30:43;1.03;;;0.80;;
5135;SDS011;2586;48.710;9.202;2022-09-03T15:33:22;2.40;;;0.70;;
5135;SDS011;2586;48.710;9.202;2022-09-03T15:36:05;5.43;;;0.90;;
5135;SDS011;2586;48.710;9.202;2022-09-03T15:38:46;3.73;;;0.87;;
5135;SDS011;2586;48.710;9.202;2022-09-03T15:41:24;12.40;;;1.43;;
5135;SDS011;2586;48.710;9.202;2022-09-03T15:44:11;1.30;;;0.97;;
5135;SDS011;2586;48.710;9.202;2022-09-03T15:49:36;2.23;;;1.27;;
5135;SDS011;2586;48.710;9.202;2022-09-03T15:55:22;1.80;;;0.90;;
5135;SDS011;2586;48.710;9.202;2022-09-03T16:00:37;1.20;;;1.10;;
5135;SDS011;2586;48.710;9.202;2022-09-03T16:03:10;1.90;;;1.70;;
5135;SDS011;2586;48.710;9.202;2022-09-03T16:06:02;2.30;;;0.93;;
5135;SDS011;2586;48.710;9.202;2022-09-03T16:19:21;1.80;;;1.40;;
5135;SDS011;2586;48.710;9.202;2022-09-03T16:25:02;1.07;;;1.07;;
5135;SDS011;2586;48.710;9.202;2022-09-03T16:41:46;2.43;;;1.60;;
5135;SDS011;2586;48.710;9.202;2022-09-03T17:07:02;1.73;;;1.40;;
5135;SDS011;2586;48.710;9.202;2022-09-03T17:09:42;3.00;;;2.20;;
5135;SDS011;2586;48.710;9.202;2022-09-03T17:28:48;0.93;;;0.87;;
5135;SDS011;2586;48.710;9.202;2022-09-03T17:34:22;2.00;;;0.97;;
5135;SDS011;2586;48.710;9.202;2022-09-03T17:42:32;1.67;;;1.40;;
5135;SDS011;2586;48.710;9.202;2022-09-03T17:45:09;1.63;;;1.50;;
5135;SDS011;2586;48.710;9.202;2022-09-03T17:48:23;2.80;;;1.07;;
5135;SDS011;2586;48.710;9.202;2022-09-03T17:51:00;1.73;;;1.00;;
5135;SDS011;2586;48.710;9.202;2022-09-03T17:53:37;1.70;;;1.60;;
5135;SDS011;2586;48.710;9.202;2022-09-03T17:56:38;8.70;;;2.30;;
5135;SDS011;2586;48.710;9.202;2022-09-03T18:02:05;3.63;;;3.13;;
5135;SDS011;2586;48.710;9.202;2022-09-03T18:05:15;3.30;;;2.30;;
5135;SDS011;2586;48.710;9.202;2022-09-03T18:08:19;3.90;;;2.93;;
5135;SDS011;2586;48.710;9.202;2022-09-03T18:11:00;6.23;;;3.20;;
5135;SDS011;2586;48.710;9.202;2022-09-03T18:13:54;5.10;;;3.20;;
5135;SDS011;2586;48.710;9.202;2022-09-03T18:16:26;7.10;;;3.20;;
5135;SDS011;2586;48.710;9.202;2022-09-03T18:19:05;2.97;;;2.40;;
5135;SDS011;2586;48.710;9.202;2022-09-03T18:21:43;3.87;;;1.80;;
5135;SDS011;2586;48.710;9.202;2022-09-03T18:24:34;9.63;;;1.97;;
5135;SDS011;2586;48.710;9.202;2022-09-03T18:27:37;4.20;;;1.67;;
5135;SDS011;2586;48.710;9.202;2022-09-03T18:30:25;2.17;;;1.47;;
5135;SDS011;2586;48.710;9.202;2022-09-03T18:33:10;5.37;;;2.00;;
5135;SDS011;2586;48.710;9.202;2022-09-03T18:35:54;2.90;;;2.00;;
5135;SDS011;2586;48.710;9.202;2022-09-03T18:38:40;2.00;;;1.73;;
5135;SDS011;2586;48.710;9.202;2022-09-03T18:53:36;6.13;;;2.70;;
5135;SDS011;2586;48.710;9.202;2022-09-03T18:56:45;3.33;;;3.00;;
5135;SDS011;2586;48.710;9.202;2022-09-03T19:03:15;5.43;;;2.33;;
5135;SDS011;2586;48.710;9.202;2022-09-03T19:12:42;3.03;;;2.53;;
5135;SDS011;2586;48.710;9.202;2022-09-03T19:16:05;3.93;;;2.53;;
5135;SDS011;2586;48.710;9.202;2022-09-03T19:22:26;3.67;;;2.80;;
5135;SDS011;2586;48.710;9.202;2022-09-03T19:25:12;10.97;;;2.97;;
5135;SDS011;2586;48.710;9.202;2022-09-03T19:45:49;2.43;;;2.23;;
5135;SDS011;2586;48.710;9.202;2022-09-03T19:51:54;3.43;;;2.20;;
5135;SDS011;2586;48.710;9.202;2022-09-03T19:54:52;2.70;;;2.60;;
5135;SDS011;2586;48.710;9.202;2022-09-03T19:57:39;2.33;;;2.20;;
5135;SDS011;2586;48.710;9.202;2022-09-03T20:00:26;2.43;;;2.27;;
5135;SDS011;2586;48.710;9.202;2022-09-03T20:03:12;2.53;;;2.33;;
5135;SDS011;2586;48.710;9.202;2022-09-03T20:05:57;5.17;;;4.63;;
5135;SDS011;2586;48.710;9.202;2022-09-03T20:08:44;4.80;;;3.17;;
5135;SDS011;2586;48.710;9.202;2022-09-03T20:11:30;3.10;;;2.90;;
5135;SDS011;2586;48.710;9.202;2022-09-03T20:13:56;3.50;;;3.20;;
5135;SDS011;2586;48.710;9.202;2022-09-03T20:28:26;3.77;;;2.33;;
5135;SDS011;2586;48.710;9.202;2022-09-03T20:31:26;2.77;;;2.57;;
5135;SDS011;2586;48.710;9.202;2022-09-03T20:39:27;8.93;;;2.13;;
5135;SDS011;2586;48.710;9.202;2022-09-03T20:42:12;2.10;;;1.90;;
5135;SDS011;2586;48.710;9.202;2022-09-03T20:45:01;5.50;;;3.00;;
5135;SDS011;2586;48.710;9.202;2022-09-03T20:47:43;3.90;;;2.43;;
5135;SDS011;2586;48.710;9.202;2022-09-03T20:50:27;9.37;;;2.57;;
5135;SDS011;2586;48.710;9.202;2022-09-03T20:55:48;12.50;;;3.00;;
5135;SDS011;2586;48.710;9.202;2022-09-03T20:58:25;2.50;;;2.20;;
5135;SDS011;2586;48.710;9.202;2022-09-03T21:04:07;6.00;;;2.93;;
5135;SDS011;2586;48.710;9.202;2022-09-03T21:08:50;5.57;;;2.90;;
5135;SDS011;2586;48.710;9.202;2022-09-03T21:11:51;5.37;;;4.00;;
5135;SDS011;2586;48.710;9.202;2022-09-03T21:28:31;3.70;;;3.40;;
5135;SDS011;2586;48.710;9.202;2022-09-03T21:31:04;3.07;;;2.87;;
5135;SDS011;2586;48.710;9.202;2022-09-03T21:33:37;4.03;;;2.87;;
5135;SDS011;2586;48.710;9.202;2022-09-03T21:36:11;4.27;;;2.93;;
5135;SDS011;2586;48.710;9.202;2022-09-03T21:38:45;7.50;;;3.77;;
5135;SDS011;2586;48.710;9.202;2022-09-03T21:41:22;4.83;;;2.90;;
5135;SDS011;2586;48.710;9.202;2022-09-03T21:46:40;3.03;;;2.67;;
5135;SDS011;2586;48.710;9.202;2022-09-03T21:49:23;3.50;;;3.20;;
5135;SDS011;2586;48.710;9.202;2022-09-03T21:52:16;10.40;;;3.20;;
5135;SDS011;2586;48.710;9.202;2022-09-03T21:54:47;4.77;;;2.87;;
5135;SDS011;2586;48.710;9.202;2022-09-03T21:57:28;3.70;;;3.40;;
5135;SDS011;2586;48.710;9.202;2022-09-03T22:02:45;5.17;;;3.70;;
5135;SDS011;2586;48.710;9.202;2022-09-03T22:05:13;7.33;;;4.50;;
5135;SDS011;2586;48.710;9.202;2022-09-03T22:10:43;7.03;;;4.10;;
5135;SDS011;2586;48.710;9.202;2022-09-03T22:16:15;4.27;;;2.97;;
5135;SDS011;2586;48.710;9.202;2022-09-03T22:18:54;7.83;;;2.77;;